createdAt,value
2018-10-09T00:02:13.635Z,7.23
2018-10-09T00:04:42.848Z,6.63
2018-10-09T00:07:11.981Z,7.47
2018-10-09T00:09:41.268Z,7.17
2018-10-09T00:12:10.978Z,7.25
2018-10-09T00:14:40.188Z,7.07
2018-10-09T00:17:09.456Z,6.97
2018-10-09T00:19:38.602Z,7.60
2018-10-09T00:22:07.813Z,7.75
2018-10-09T00:24:37.116Z,6.80
2018-10-09T00:27:06.279Z,7.10
2018-10-09T00:29:35.877Z,7.60
2018-10-09T00:32:05.012Z,8.80
2018-10-09T00:34:34.168Z,8.47
2018-10-09T00:37:03.427Z,9.90
2018-10-09T00:39:33.004Z,9.40
2018-10-09T00:42:02.188Z,9.27
2018-10-09T00:44:31.439Z,9.40
2018-10-09T00:47:00.748Z,8.93
2018-10-09T00:49:30.068Z,8.53
2018-10-09T00:51:59.363Z,8.73
2018-10-09T00:54:28.576Z,8.17
2018-10-09T00:56:57.776Z,8.57
2018-10-09T00:59:26.976Z,8.53
2018-10-09T01:01:56.220Z,8.13
2018-10-09T01:04:25.409Z,8.30
2018-10-09T01:06:54.612Z,8.03
2018-10-09T01:09:23.799Z,7.97
2018-10-09T01:11:52.961Z,8.80
2018-10-09T01:14:22.125Z,8.60
2018-10-09T01:16:51.323Z,8.90
2018-10-09T01:19:20.504Z,8.90
2018-10-09T01:21:49.670Z,8.53
2018-10-09T01:24:18.928Z,8.97
2018-10-09T01:26:48.065Z,8.50
2018-10-09T01:29:17.330Z,8.87
2018-10-09T01:31:46.527Z,9.20
2018-10-09T01:34:15.746Z,8.10
2018-10-09T01:36:45.012Z,8.60
2018-10-09T01:39:14.164Z,8.53
2018-10-09T01:41:43.343Z,8.67
2018-10-09T01:44:12.547Z,9.97
2018-10-09T01:46:41.824Z,10.35
2018-10-09T01:49:10.955Z,11.00
2018-10-09T01:51:40.150Z,10.83
2018-10-09T01:54:09.304Z,10.77
2018-10-09T01:56:38.606Z,10.40
2018-10-09T01:59:07.851Z,11.70
2018-10-09T02:01:37.083Z,10.60
2018-10-09T02:04:06.240Z,9.50
2018-10-09T02:06:46.733Z,9.80
2018-10-09T02:09:15.922Z,9.70
2018-10-09T02:11:45.128Z,9.03
2018-10-09T02:14:14.414Z,9.30
2018-10-09T02:16:43.739Z,8.97
2018-10-09T02:19:12.936Z,10.27
2018-10-09T02:21:42.259Z,10.37
2018-10-09T02:24:11.488Z,9.20
2018-10-09T02:26:40.697Z,9.48
2018-10-09T02:29:09.994Z,9.43
2018-10-09T02:31:39.199Z,9.78
2018-10-09T02:34:08.453Z,9.20
2018-10-09T02:36:37.623Z,9.47
2018-10-09T02:39:09.136Z,10.10
2018-10-09T02:41:38.473Z,9.75
2018-10-09T02:44:08.092Z,10.10
2018-10-09T02:46:37.300Z,10.90
2018-10-09T02:49:06.785Z,9.87
2018-10-09T02:51:36.337Z,9.60
2018-10-09T02:54:05.791Z,10.18
2018-10-09T02:56:35.010Z,10.07
2018-10-09T02:59:04.317Z,10.05
2018-10-09T03:06:34.604Z,10.13
2018-10-09T03:09:04.803Z,10.23
2018-10-09T03:11:34.098Z,10.63
2018-10-09T03:14:03.347Z,10.30
2018-10-09T03:16:32.564Z,10.90
2018-10-09T03:19:04.789Z,11.50
2018-10-09T03:21:34.024Z,12.00
2018-10-09T03:24:03.225Z,12.57
2018-10-09T03:26:32.412Z,11.40
2018-10-09T03:29:01.610Z,11.67
2018-10-09T03:31:30.876Z,11.37
2018-10-09T03:34:00.155Z,10.83
2018-10-09T03:36:29.413Z,11.10
2018-10-09T03:38:58.615Z,12.87
2018-10-09T03:41:27.834Z,11.33
2018-10-09T03:43:57.129Z,11.60
2018-10-09T03:46:26.369Z,10.93
2018-10-09T03:48:56.640Z,12.25
2018-10-09T03:51:25.806Z,12.13
2018-10-09T03:53:54.941Z,11.80
2018-10-09T03:56:24.145Z,11.57
2018-10-09T03:58:53.451Z,12.10
2018-10-09T04:01:22.615Z,11.70
2018-10-09T04:03:51.795Z,11.53
2018-10-09T04:06:21.044Z,12.17
2018-10-09T04:08:50.370Z,12.10
2018-10-09T04:11:19.838Z,12.30
2018-10-09T04:13:49.181Z,14.45
2018-10-09T04:16:18.328Z,12.90
2018-10-09T04:18:48.132Z,13.45
2018-10-09T04:21:17.369Z,12.57
2018-10-09T04:23:46.500Z,13.70
2018-10-09T04:26:15.682Z,13.45
2018-10-09T04:28:44.930Z,12.80
2018-10-09T04:31:14.123Z,12.40
2018-10-09T04:33:43.292Z,13.13
2018-10-09T04:36:12.475Z,12.47
2018-10-09T04:38:41.768Z,13.32
2018-10-09T04:41:10.957Z,12.70
2018-10-09T04:43:40.230Z,12.33
2018-10-09T04:46:09.489Z,12.53
2018-10-09T04:48:38.674Z,12.90
2018-10-09T04:51:07.948Z,12.58
2018-10-09T04:53:37.145Z,12.13
2018-10-09T04:56:06.427Z,13.17
2018-10-09T04:58:35.612Z,12.15
2018-10-09T05:01:04.866Z,13.80
2018-10-09T05:03:34.098Z,13.17
2018-10-09T05:06:03.280Z,13.40
2018-10-09T05:08:32.546Z,13.40
2018-10-09T05:11:01.803Z,14.07
2018-10-09T05:13:30.991Z,14.73
2018-10-09T05:16:00.176Z,14.13
2018-10-09T05:18:29.395Z,14.03
2018-10-09T05:20:58.584Z,13.90
2018-10-09T05:23:27.835Z,12.60
2018-10-09T05:25:57.084Z,12.58
2018-10-09T05:28:26.244Z,12.40
2018-10-09T05:30:55.444Z,13.13
2018-10-09T05:33:24.655Z,12.97
2018-10-09T05:35:53.856Z,13.50
2018-10-09T05:38:23.103Z,13.03
2018-10-09T05:40:52.345Z,12.57
2018-10-09T05:43:21.505Z,12.77
2018-10-09T05:45:50.677Z,11.95
2018-10-09T05:48:19.892Z,12.57
2018-10-09T05:50:49.071Z,13.37
2018-10-09T05:53:18.185Z,13.33
2018-10-09T05:55:47.398Z,14.10
2018-10-09T05:58:16.630Z,14.73
2018-10-09T06:00:45.781Z,14.37
2018-10-09T06:03:14.940Z,14.13
2018-10-09T06:05:44.175Z,13.77
2018-10-09T06:08:13.308Z,14.43
2018-10-09T06:10:42.536Z,13.50
2018-10-09T06:13:11.787Z,14.03
2018-10-09T06:15:41.141Z,13.70
2018-10-09T06:18:10.248Z,14.10
2018-10-09T06:20:39.453Z,13.53
2018-10-09T06:23:08.664Z,13.97
2018-10-09T06:25:38.104Z,14.30
2018-10-09T06:28:07.795Z,13.73
2018-10-09T06:30:37.075Z,14.07
2018-10-09T06:33:06.356Z,14.03
2018-10-09T06:35:35.516Z,14.73
2018-10-09T06:38:04.723Z,15.53
2018-10-09T06:40:33.953Z,15.15
2018-10-09T06:43:03.146Z,14.38
2018-10-09T06:45:32.347Z,15.47
2018-10-09T06:48:01.564Z,15.63
2018-10-09T06:50:30.706Z,16.10
2018-10-09T06:52:59.971Z,17.02
2018-10-09T06:55:29.139Z,17.47
2018-10-09T06:57:58.312Z,17.87
2018-10-09T07:00:27.493Z,17.57
2018-10-09T07:02:56.750Z,18.23
2018-10-09T07:05:25.917Z,19.13
2018-10-09T07:07:55.151Z,22.93
2018-10-09T07:10:24.366Z,21.40
2018-10-09T07:12:53.568Z,23.30
2018-10-09T07:15:22.804Z,21.93
2018-10-09T07:17:51.923Z,20.70
2018-10-09T07:20:21.155Z,20.50
2018-10-09T07:22:50.503Z,21.00
2018-10-09T07:25:19.757Z,20.20
2018-10-09T07:27:48.974Z,19.63
2018-10-09T07:30:18.167Z,20.55
2018-10-09T07:32:47.384Z,21.40
2018-10-09T07:35:16.545Z,21.12
2018-10-09T07:37:45.761Z,21.00
2018-10-09T07:40:14.934Z,20.97
2018-10-09T07:42:44.274Z,22.60
2018-10-09T07:45:13.520Z,24.37
2018-10-09T07:47:42.732Z,25.03
2018-10-09T07:50:12.233Z,23.73
2018-10-09T07:52:41.447Z,25.67
2018-10-09T07:55:10.823Z,25.17
2018-10-09T07:57:40.083Z,24.70
2018-10-09T08:00:09.289Z,27.17
2018-10-09T08:02:38.421Z,25.47
2018-10-09T08:05:07.655Z,24.40
2018-10-09T08:07:37.103Z,23.57
2018-10-09T08:10:06.674Z,23.30
2018-10-09T08:12:35.835Z,23.40
2018-10-09T08:15:05.080Z,21.93
2018-10-09T08:17:34.298Z,23.17
2018-10-09T08:20:03.565Z,20.80
2018-10-09T08:22:32.771Z,21.27
2018-10-09T08:25:01.945Z,21.27
2018-10-09T08:27:31.100Z,22.07
2018-10-09T08:30:00.285Z,22.17
2018-10-09T08:32:29.472Z,20.80
2018-10-09T08:34:58.712Z,20.87
2018-10-09T08:37:27.872Z,20.87
2018-10-09T08:39:57.033Z,21.80
2018-10-09T08:42:26.226Z,20.80
2018-10-09T08:44:55.399Z,21.43
2018-10-09T08:47:24.592Z,20.17
2018-10-09T08:49:53.797Z,20.08
2018-10-09T08:52:23.003Z,19.33
2018-10-09T08:54:52.200Z,18.83
2018-10-09T08:57:21.397Z,20.43
2018-10-09T08:59:50.588Z,20.45
2018-10-09T09:02:19.840Z,19.80
2018-10-09T09:04:48.993Z,17.63
2018-10-09T09:07:18.204Z,18.53
2018-10-09T09:09:47.448Z,19.20
2018-10-09T09:12:16.593Z,17.60
2018-10-09T09:14:45.829Z,18.67
2018-10-09T09:17:14.988Z,17.83
2018-10-09T09:19:44.218Z,18.62
2018-10-09T09:22:13.400Z,18.80
2018-10-09T09:24:42.739Z,19.20
2018-10-09T09:27:12.058Z,20.60
2018-10-09T09:29:41.147Z,21.63
2018-10-09T09:32:10.359Z,20.45
2018-10-09T09:34:39.623Z,19.75
2018-10-09T09:37:08.875Z,19.90
2018-10-09T09:39:38.073Z,20.17
2018-10-09T09:42:07.271Z,19.90
2018-10-09T09:44:36.568Z,19.80
2018-10-09T09:47:05.809Z,19.77
2018-10-09T09:49:35.033Z,20.08
2018-10-09T09:52:04.226Z,19.43
2018-10-09T09:54:33.428Z,18.97
2018-10-09T09:57:02.632Z,17.83
2018-10-09T09:59:31.793Z,17.80
2018-10-09T10:02:01.021Z,17.80
2018-10-09T10:04:30.264Z,17.90
2018-10-09T10:06:59.452Z,17.07
2018-10-09T10:09:28.695Z,15.63
2018-10-09T10:11:57.847Z,17.27
2018-10-09T10:14:27.045Z,15.03
2018-10-09T10:16:56.249Z,14.53
2018-10-09T10:19:25.426Z,14.33
2018-10-09T10:21:55.001Z,13.95
2018-10-09T10:24:24.246Z,13.87
2018-10-09T10:26:53.463Z,14.60
2018-10-09T10:29:22.729Z,13.10
2018-10-09T10:31:52.085Z,14.80
2018-10-09T10:34:21.300Z,15.23
2018-10-09T10:36:50.643Z,16.00
2018-10-09T10:39:19.678Z,16.23
2018-10-09T10:41:48.874Z,15.67
2018-10-09T10:44:18.086Z,15.72
2018-10-09T10:46:47.277Z,16.37
2018-10-09T10:49:16.480Z,15.73
2018-10-09T10:51:45.603Z,14.90
2018-10-09T10:54:14.747Z,14.50
2018-10-09T10:56:43.961Z,14.07
2018-10-09T10:59:13.185Z,16.70
2018-10-09T11:01:42.509Z,15.95
2018-10-09T11:04:11.652Z,15.30
2018-10-09T11:06:40.804Z,15.50
2018-10-09T11:09:10.927Z,16.70
2018-10-09T11:11:40.098Z,16.00
2018-10-09T11:14:09.318Z,14.30
2018-10-09T11:16:38.491Z,16.17
2018-10-09T11:19:07.721Z,15.03
2018-10-09T11:21:36.918Z,15.20
2018-10-09T11:24:06.122Z,15.60
2018-10-09T11:26:35.308Z,14.50
2018-10-09T11:29:04.564Z,14.43
2018-10-09T11:31:33.818Z,14.27
2018-10-09T11:34:02.996Z,14.10
2018-10-09T11:36:32.154Z,14.27
2018-10-09T11:39:01.364Z,12.77
2018-10-09T11:41:33.622Z,12.47
2018-10-09T11:44:03.701Z,12.63
2018-10-09T11:46:33.966Z,11.80
2018-10-09T11:49:03.208Z,11.27
2018-10-09T11:51:32.375Z,11.03
2018-10-09T11:54:01.516Z,9.83
2018-10-09T11:56:30.681Z,10.27
2018-10-09T11:58:59.913Z,10.18
2018-10-09T12:01:29.085Z,9.80
2018-10-09T12:03:58.281Z,10.43
2018-10-09T12:06:28.488Z,9.65
2018-10-09T12:08:57.649Z,9.45
2018-10-09T12:11:26.797Z,9.30
2018-10-09T12:13:56.093Z,9.50
2018-10-09T12:16:25.348Z,8.63
2018-10-09T12:18:54.513Z,8.57
2018-10-09T12:21:23.724Z,7.17
2018-10-09T12:23:52.845Z,7.03
2018-10-09T12:26:22.041Z,8.50
2018-10-09T12:28:51.226Z,8.50
2018-10-09T12:31:20.437Z,7.25
2018-10-09T12:33:49.577Z,7.92
2018-10-09T12:36:18.751Z,8.10
2018-10-09T12:38:47.884Z,7.67
2018-10-09T12:41:17.071Z,7.70
2018-10-09T12:43:46.277Z,8.67
2018-10-09T12:46:15.459Z,9.03
2018-10-09T12:48:44.677Z,8.33
2018-10-09T12:51:13.843Z,8.90
2018-10-09T12:53:42.965Z,9.27
2018-10-09T12:56:12.135Z,7.97
2018-10-09T12:58:41.385Z,8.60
2018-10-09T13:01:10.492Z,8.87
2018-10-09T13:03:39.678Z,8.63
2018-10-09T13:06:08.848Z,9.40
2018-10-09T13:08:38.219Z,10.03
2018-10-09T13:11:07.893Z,8.57
2018-10-09T13:13:37.083Z,9.70
2018-10-09T13:16:06.287Z,9.93
2018-10-09T13:18:35.511Z,10.15
2018-10-09T13:21:04.802Z,9.40
2018-10-09T13:23:33.929Z,9.43
2018-10-09T13:26:03.110Z,9.70
2018-10-09T13:28:32.291Z,9.60
2018-10-09T13:31:01.675Z,10.23
2018-10-09T13:33:30.897Z,10.23
2018-10-09T13:36:00.084Z,10.38
2018-10-09T13:38:29.274Z,9.97
2018-10-09T13:40:58.492Z,10.40
2018-10-09T13:43:27.762Z,11.37
2018-10-09T13:45:56.958Z,10.40
2018-10-09T13:48:26.199Z,12.28
2018-10-09T13:50:55.465Z,11.38
2018-10-09T13:53:24.634Z,10.80
2018-10-09T13:55:53.834Z,11.00
2018-10-09T13:58:23.121Z,10.90
2018-10-09T14:00:52.262Z,10.93
2018-10-09T14:03:21.527Z,11.17
2018-10-09T14:05:50.660Z,10.20
2018-10-09T14:08:20.221Z,11.73
2018-10-09T14:10:49.399Z,11.17
2018-10-09T14:13:18.600Z,11.43
2018-10-09T14:15:47.856Z,11.80
2018-10-09T14:18:17.065Z,10.97
2018-10-09T14:20:46.420Z,12.30
2018-10-09T14:23:16.760Z,10.93
2018-10-09T14:25:47.114Z,13.20
2018-10-09T14:28:20.364Z,11.50
2018-10-09T14:30:49.628Z,10.87
2018-10-09T14:33:24.206Z,11.67
2018-10-09T14:36:01.553Z,10.77
2018-10-09T14:38:31.360Z,11.20
2018-10-09T14:41:00.593Z,12.20
2018-10-09T14:43:29.788Z,10.50
2018-10-09T14:45:59.009Z,10.07
2018-10-09T14:48:29.420Z,10.23
2018-10-09T14:50:58.651Z,10.72
2018-10-09T14:58:26.256Z,11.40
2018-10-09T15:00:55.930Z,10.53
2018-10-09T15:03:25.583Z,10.73
2018-10-09T15:05:55.065Z,7.93
2018-10-09T15:08:25.315Z,8.70
2018-10-09T15:10:55.200Z,9.10
2018-10-09T15:13:24.495Z,7.90
2018-10-09T15:15:53.994Z,7.90
2018-10-09T15:18:23.547Z,10.63
2018-10-09T15:20:52.985Z,7.90
2018-10-09T15:23:23.571Z,7.80
2018-10-09T15:25:53.170Z,8.13
2018-10-09T15:28:22.860Z,7.70
2018-10-09T15:33:30.881Z,7.40
2018-10-09T15:36:00.086Z,7.23
2018-10-09T15:38:29.345Z,7.77
2018-10-09T15:40:58.831Z,6.70
2018-10-09T15:43:28.131Z,7.13
2018-10-09T15:45:57.421Z,7.00
2018-10-09T15:48:26.721Z,7.43
2018-10-09T15:50:56.161Z,7.70
2018-10-09T15:53:25.926Z,7.20
2018-10-09T15:55:55.223Z,6.50
2018-10-09T15:58:24.958Z,7.13
2018-10-09T16:00:54.333Z,6.60
2018-10-09T16:06:07.068Z,6.83
2018-10-09T16:08:36.245Z,5.90
2018-10-09T16:11:05.539Z,6.27
2018-10-09T16:13:34.769Z,6.27
2018-10-09T16:16:03.936Z,6.77
2018-10-09T16:18:33.202Z,7.70
2018-10-09T16:21:03.691Z,7.37
2018-10-09T16:23:34.777Z,6.90
2018-10-09T16:26:04.098Z,7.67
2018-10-09T16:28:33.601Z,7.27
2018-10-09T16:31:02.946Z,8.43
2018-10-09T16:33:32.146Z,7.00
2018-10-09T16:36:07.355Z,7.30
2018-10-09T16:38:36.588Z,7.58
2018-10-09T16:41:07.098Z,7.37
2018-10-09T16:43:36.395Z,7.77
2018-10-09T16:46:06.254Z,8.00
2018-10-09T16:48:35.581Z,7.80
2018-10-09T16:51:04.918Z,8.67
2018-10-09T16:53:34.272Z,8.73
2018-10-09T16:56:03.464Z,7.80
2018-10-09T16:58:32.712Z,7.65
2018-10-09T17:01:02.059Z,7.00
2018-10-09T17:03:31.391Z,7.27
2018-10-09T17:06:00.737Z,6.80
2018-10-09T17:08:29.989Z,6.43
2018-10-09T17:10:59.312Z,6.73
2018-10-09T17:13:28.590Z,7.30
2018-10-09T17:15:57.868Z,6.90
2018-10-09T17:18:28.162Z,6.30
2018-10-09T17:20:57.409Z,6.60
2018-10-09T17:23:26.628Z,6.33
2018-10-09T17:25:55.862Z,6.30
2018-10-09T17:28:25.110Z,7.03
2018-10-09T17:30:54.369Z,6.73
2018-10-09T17:33:23.738Z,7.93
2018-10-09T17:35:52.945Z,9.33
2018-10-09T17:38:22.194Z,9.93
2018-10-09T17:40:51.460Z,8.07
2018-10-09T17:43:20.661Z,7.50
2018-10-09T17:45:49.932Z,8.00
2018-10-09T17:48:19.216Z,8.33
2018-10-09T17:50:48.369Z,8.50
2018-10-09T17:53:17.639Z,9.38
2018-10-09T17:55:46.838Z,10.05
2018-10-09T17:58:15.996Z,10.20
2018-10-09T18:00:45.245Z,10.43
2018-10-09T18:03:14.599Z,11.03
2018-10-09T18:05:43.756Z,10.60
2018-10-09T18:08:13.132Z,9.50
2018-10-09T18:10:42.556Z,9.63
2018-10-09T18:13:12.716Z,9.70
2018-10-09T18:15:42.053Z,10.30
2018-10-09T18:18:11.228Z,9.57
2018-10-09T18:20:40.405Z,9.80
2018-10-09T18:23:09.653Z,10.00
2018-10-09T18:25:38.811Z,9.83
2018-10-09T18:28:08.272Z,9.37
2018-10-09T18:30:37.458Z,10.10
2018-10-09T18:33:06.987Z,10.90
2018-10-09T18:35:37.184Z,10.83
2018-10-09T18:38:06.543Z,10.97
2018-10-09T18:40:35.748Z,11.40
2018-10-09T18:43:04.970Z,12.37
2018-10-09T18:45:34.250Z,11.05
2018-10-09T18:48:03.448Z,11.80
2018-10-09T18:50:32.632Z,11.83
2018-10-09T18:53:01.789Z,11.90
2018-10-09T18:55:31.020Z,12.40
2018-10-09T18:58:00.298Z,11.90
2018-10-09T19:00:29.602Z,12.55
2018-10-09T19:02:58.835Z,12.70
2018-10-09T19:05:28.003Z,12.40
2018-10-09T19:07:57.131Z,11.23
2018-10-09T19:10:26.337Z,11.57
2018-10-09T19:12:55.812Z,12.70
2018-10-09T19:15:25.114Z,11.93
2018-10-09T19:17:54.331Z,12.53
2018-10-09T19:20:23.599Z,12.03
2018-10-09T19:22:52.760Z,12.57
2018-10-09T19:25:22.013Z,13.50
2018-10-09T19:27:51.219Z,13.23
2018-10-09T19:30:20.424Z,13.47
2018-10-09T19:32:49.597Z,12.90
2018-10-09T19:35:18.928Z,12.43
2018-10-09T19:37:48.092Z,12.80
2018-10-09T19:40:17.300Z,13.90
2018-10-09T19:42:46.641Z,13.47
2018-10-09T19:45:15.906Z,13.17
2018-10-09T19:47:45.129Z,13.83
2018-10-09T19:50:14.311Z,14.87
2018-10-09T19:52:43.515Z,13.95
2018-10-09T19:55:12.667Z,13.77
2018-10-09T19:57:41.988Z,13.03
2018-10-09T20:00:11.167Z,13.62
2018-10-09T20:02:42.390Z,13.18
2018-10-09T20:05:11.606Z,13.40
2018-10-09T20:07:40.915Z,13.40
2018-10-09T20:10:10.408Z,15.87
2018-10-09T20:12:39.575Z,13.53
2018-10-09T20:15:08.824Z,14.07
2018-10-09T20:17:38.134Z,13.00
2018-10-09T20:20:07.359Z,13.37
2018-10-09T20:22:36.680Z,13.10
2018-10-09T20:25:05.926Z,13.63
2018-10-09T20:27:35.899Z,13.83
2018-10-09T20:30:05.195Z,14.37
2018-10-09T20:32:34.540Z,13.90
2018-10-09T20:35:03.764Z,14.00
2018-10-09T20:37:32.958Z,13.53
2018-10-09T20:40:02.158Z,14.53
2018-10-09T20:42:31.384Z,13.80
2018-10-09T20:45:00.572Z,13.80
2018-10-09T20:47:35.056Z,13.03
2018-10-09T20:50:04.341Z,13.90
2018-10-09T20:52:33.489Z,13.40
2018-10-09T20:55:02.673Z,13.85
2018-10-09T20:57:31.905Z,12.27
2018-10-09T21:00:01.151Z,13.10
2018-10-09T21:02:30.330Z,13.53
2018-10-09T21:04:59.558Z,14.43
2018-10-09T21:07:28.776Z,14.60
2018-10-09T21:09:58.952Z,14.33
2018-10-09T21:12:28.140Z,15.47
2018-10-09T21:14:57.261Z,14.30
2018-10-09T21:17:26.521Z,13.97
2018-10-09T21:19:55.661Z,14.60
2018-10-09T21:22:24.903Z,14.70
2018-10-09T21:24:54.097Z,14.47
2018-10-09T21:27:23.204Z,13.33
2018-10-09T21:29:52.417Z,14.17
2018-10-09T21:32:21.567Z,13.77
2018-10-09T21:34:50.708Z,13.38
2018-10-09T21:37:19.832Z,13.53
2018-10-09T21:39:48.961Z,13.50
2018-10-09T21:42:18.074Z,13.53
2018-10-09T21:44:47.344Z,13.23
2018-10-09T21:47:17.645Z,13.60
2018-10-09T21:49:46.763Z,13.23
2018-10-09T21:52:15.940Z,13.43
2018-10-09T21:54:45.227Z,13.37
2018-10-09T21:57:14.476Z,13.83
2018-10-09T21:59:43.621Z,14.20
2018-10-09T22:02:12.796Z,12.90
2018-10-09T22:04:42.050Z,12.63
2018-10-09T22:07:19.281Z,13.20
2018-10-09T22:09:50.792Z,13.80
2018-10-09T22:12:20.125Z,13.63
2018-10-09T22:14:49.304Z,13.40
2018-10-09T22:17:18.536Z,13.67
2018-10-09T22:19:47.685Z,14.07
2018-10-09T22:22:16.891Z,15.23
2018-10-09T22:24:46.124Z,13.93
2018-10-09T22:27:15.290Z,15.37
2018-10-09T22:29:44.511Z,14.63
2018-10-09T22:32:13.740Z,13.90
2018-10-09T22:34:42.978Z,14.63
2018-10-09T22:37:12.319Z,13.70
2018-10-09T22:39:41.824Z,13.75
2018-10-09T22:42:11.111Z,13.35
2018-10-09T22:44:40.354Z,14.07
2018-10-09T22:47:09.633Z,13.70
2018-10-09T22:49:38.842Z,14.20
2018-10-09T22:52:08.191Z,13.43
2018-10-09T22:54:37.345Z,14.45
2018-10-09T22:57:06.606Z,13.93
2018-10-09T22:59:35.807Z,14.70
2018-10-09T23:02:05.096Z,13.33
2018-10-09T23:04:34.382Z,14.20
2018-10-09T23:07:03.534Z,13.40
2018-10-09T23:09:32.763Z,12.77
2018-10-09T23:12:01.904Z,13.03
2018-10-09T23:14:31.106Z,13.43
2018-10-09T23:17:00.383Z,12.60
2018-10-09T23:19:29.515Z,12.65
2018-10-09T23:21:58.835Z,12.47
2018-10-09T23:24:27.979Z,13.10
2018-10-09T23:26:57.198Z,14.07
2018-10-09T23:29:26.367Z,13.63
2018-10-09T23:31:55.520Z,14.00
2018-10-09T23:34:24.700Z,14.40
2018-10-09T23:36:53.831Z,13.03
2018-10-09T23:39:23.046Z,14.03
2018-10-09T23:41:52.290Z,13.70
2018-10-09T23:44:21.474Z,13.80
2018-10-09T23:46:51.433Z,13.95
2018-10-09T23:49:20.616Z,13.27
2018-10-09T23:51:49.908Z,12.90
2018-10-09T23:54:19.101Z,13.03
2018-10-09T23:56:48.472Z,13.33
2018-10-09T23:59:17.644Z,13.77
